Terminal Aerodrome Forecast
Issued by NWS Wilmington, NC

Home | Current Version | Previous Version | Text Only | Print | Product List | Glossary On
Versions: 1 2 3 4 5 6 7 8 9 10 11 12 13 14 15 16 17 18 19
520
FTUS42 KILM 042356 CCB
TAFFLO
TAF COR
KFLO 042356Z 0500/0524 06005KT 6SM -RA BR OVC020
      TEMPO 0501/0503 SCT008 BKN018
     FM050300 06005KT 4SM -RA BR BKN007 OVC015
     FM050600 03004KT 1SM RA BR OVC003
     FM051000 35004KT 3SM BR VCSH OVC003
     FM051500 36005KT P6SM OVC010
     FM051800 01005KT P6SM SCT015 BKN070=

USA.gov is the U.S. government's official web portal to all federal, state and local government web resources and services.